Time;durP1;ratioP1;P1;durP2;ratioP2;P2;SDS_P1;SDS_P2;PMS_P1;PMS_P2;Temp;Humidity;BMP_temperature;BMP_pressure;BME280_temperature;BME280_humidity;BME280_pressure;Samples;Min_cycle;Max_cycle;Signal;HPM_P1;HPM_P2
2022/09/25 00:01:38;;;;;;;1.88;0.65;;;21.60;49.50;;;;;;5048580;28;20033;-50
2022/09/25 00:04:04;;;;;;;2.08;0.70;;;21.60;49.50;;;;;;5036496;28;20032;-49
2022/09/25 00:06:32;;;;;;;1.83;0.65;;;21.60;49.50;;;;;;5040841;28;20020;-49
2022/09/25 00:09:00;;;;;;;3.63;0.88;;;21.60;49.50;;;;;;5041102;28;20383;-50
2022/09/25 00:11:29;;;;;;;2.40;0.93;;;21.60;49.50;;;;;;5048350;28;20444;-51
2022/09/25 00:13:56;;;;;;;1.98;0.90;;;21.60;49.50;;;;;;5047494;28;20048;-48
2022/09/25 00:16:25;;;;;;;1.33;0.50;;;21.60;49.50;;;;;;5048162;28;20044;-50
2022/09/25 00:21:36;;;;;;;;;;;21.60;49.50;;;;;;5048661;28;20037;-49
2022/09/25 00:24:05;;;;;;;2.13;0.70;;;21.60;49.50;;;;;;5046328;28;19920;-50
2022/09/25 00:26:33;;;;;;;1.58;0.70;;;21.60;49.50;;;;;;5044672;28;20025;-48
2022/09/25 00:29:02;;;;;;;1.50;0.57;;;21.60;49.50;;;;;;5044378;28;20040;-51
2022/09/25 00:31:29;;;;;;;2.42;0.80;;;21.50;49.50;;;;;;5046918;28;20044;-47
2022/09/25 00:34:03;;;;;;;2.63;0.95;;;21.50;49.50;;;;;;5046821;28;20123;-51
2022/09/25 00:36:29;;;;;;;;;;;21.50;49.50;;;;;;5048855;28;20036;-54
2022/09/25 00:38:55;;;;;;;2.55;0.73;;;21.50;49.60;;;;;;5046977;28;19909;-53
2022/09/25 00:41:24;;;;;;;2.28;0.70;;;21.50;49.60;;;;;;5048947;28;20346;-53
2022/09/25 00:43:53;;;;;;;1.20;0.70;;;21.50;49.50;;;;;;5040114;28;20021;-50
2022/09/25 00:46:36;;;;;;;1.08;0.50;;;21.50;49.50;;;;;;5047176;28;20087;-49
2022/09/25 00:49:16;;;;;;;1.42;0.60;;;21.50;49.50;;;;;;5046691;28;20133;-50
2022/09/25 00:51:55;;;;;;;3.45;0.75;;;21.50;49.50;;;;;;5044545;28;20021;-50
2022/09/25 00:54:26;;;;;;;1.42;0.57;;;21.50;49.50;;;;;;5045805;28;20179;-52
2022/09/25 00:56:55;;;;;;;1.25;0.50;;;21.50;49.60;;;;;;5046658;28;20112;-51
2022/09/25 00:59:27;;;;;;;2.63;0.47;;;21.50;49.50;;;;;;5046760;28;20451;-50
2022/09/25 01:01:54;;;;;;;2.22;0.70;;;21.50;49.50;;;;;;5042151;28;20021;-53
2022/09/25 01:04:21;;;;;;;1.42;0.68;;;21.50;49.50;;;;;;5047647;28;20029;-48
2022/09/25 01:06:48;;;;;;;3.95;0.63;;;21.50;49.50;;;;;;5042843;28;20457;-53
2022/09/25 01:09:15;;;;;;;2.58;0.45;;;21.40;49.50;;;;;;5042702;28;20044;-52
2022/09/25 01:11:41;;;;;;;4.22;0.80;;;21.50;49.50;;;;;;5045996;28;20028;-53
2022/09/25 01:14:09;;;;;;;1.33;0.60;;;21.50;49.50;;;;;;5044933;28;20029;-48
2022/09/25 01:16:46;;;;;;;1.55;0.50;;;21.40;49.40;;;;;;5047242;28;20134;-52
2022/09/25 01:19:40;;;;;;;1.25;0.40;;;21.40;49.40;;;;;;5043313;28;20143;-53
2022/09/25 01:22:25;;;;;;;2.63;0.68;;;21.40;49.40;;;;;;5040557;28;20056;-52
2022/09/25 01:25:13;;;;;;;;;;;21.40;49.30;;;;;;5045948;28;20127;-51
2022/09/25 01:28:09;;;;;;;1.77;0.60;;;21.40;49.40;;;;;;5040749;28;19908;-54
2022/09/25 01:30:40;;;;;;;1.10;0.38;;;21.40;49.30;;;;;;5046201;28;20044;-56
2022/09/25 01:33:10;;;;;;;2.60;0.85;;;21.40;49.30;;;;;;5046342;28;20033;-52
2022/09/25 01:35:51;;;;;;;1.25;0.52;;;21.40;49.30;;;;;;5044790;28;20036;-52
2022/09/25 01:38:34;;;;;;;1.00;0.60;;;21.40;49.30;;;;;;5047811;28;20091;-47
2022/09/25 01:41:18;;;;;;;1.05;0.50;;;21.40;49.30;;;;;;5043576;28;20452;-49
2022/09/25 01:43:55;;;;;;;1.00;0.50;;;21.40;49.30;;;;;;5046685;28;20025;-51
2022/09/25 01:46:26;;;;;;;1.27;0.40;;;21.40;49.30;;;;;;5043313;28;20030;-53
2022/09/25 01:49:01;;;;;;;1.95;0.60;;;21.40;49.30;;;;;;5043607;28;20026;-48
2022/09/25 01:51:50;;;;;;;1.73;0.70;;;21.30;49.20;;;;;;5046247;28;20112;-54
2022/09/25 01:54:21;;;;;;;1.67;0.50;;;21.40;49.20;;;;;;5045040;28;20036;-53
2022/09/25 01:56:55;;;;;;;0.60;0.30;;;21.30;49.20;;;;;;5045199;28;20068;-54
2022/09/25 01:59:28;;;;;;;;;;;21.30;49.20;;;;;;5047142;28;20041;-53
2022/09/25 02:01:58;;;;;;;0.93;0.38;;;21.30;49.20;;;;;;5044076;28;19999;-50
2022/09/25 02:04:38;;;;;;;2.45;0.50;;;21.30;49.20;;;;;;5045401;28;20029;-50
2022/09/25 02:07:09;;;;;;;1.02;0.40;;;21.30;49.20;;;;;;5042531;28;20021;-47
2022/09/25 02:09:48;;;;;;;1.65;0.40;;;21.30;49.20;;;;;;5040426;28;20137;-49
2022/09/25 02:12:27;;;;;;;2.15;0.60;;;21.30;49.10;;;;;;5044746;28;20336;-49
2022/09/25 02:15:10;;;;;;;2.25;0.43;;;21.30;49.10;;;;;;5038502;28;20040;-50
2022/09/25 02:20:36;;;;;;;1.25;0.50;;;21.30;49.00;;;;;;5045877;28;20045;-50
2022/09/25 02:23:24;;;;;;;0.82;0.30;;;21.30;49.00;;;;;;5046768;28;20029;-50
2022/09/25 02:26:07;;;;;;;1.42;0.77;;;21.30;49.00;;;;;;5044923;28;20040;-52
2022/09/25 02:28:35;;;;;;;1.33;0.40;;;21.30;49.00;;;;;;5043260;28;20060;-51
2022/09/25 02:31:06;;;;;;;2.22;0.82;;;21.30;49.00;;;;;;5047425;28;20298;-51
2022/09/25 02:33:32;;;;;;;1.10;0.40;;;21.30;49.00;;;;;;5048718;28;20048;-52
2022/09/25 02:36:00;;;;;;;1.08;0.80;;;21.30;49.00;;;;;;5051146;28;20036;-51
2022/09/25 02:38:27;;;;;;;1.63;0.40;;;21.30;49.00;;;;;;5043879;28;20024;-50
2022/09/25 02:41:09;;;;;;;0.90;0.47;;;21.30;49.00;;;;;;5047893;28;20037;-52
2022/09/25 02:43:44;;;;;;;1.45;0.35;;;21.20;48.90;;;;;;5050385;28;20024;-52
2022/09/25 02:46:31;;;;;;;1.35;0.45;;;21.20;48.90;;;;;;5049556;28;21747;-53
2022/09/25 02:49:31;;;;;;;2.83;0.50;;;21.20;48.90;;;;;;5046678;28;20098;-51
2022/09/25 02:52:08;;;;;;;1.73;0.55;;;21.20;48.90;;;;;;5049811;28;20066;-50
2022/09/25 02:54:44;;;;;;;2.97;0.57;;;21.20;48.90;;;;;;5048539;28;20360;-54
2022/09/25 02:57:20;;;;;;;1.95;0.60;;;21.20;48.90;;;;;;5050988;28;20125;-51
2022/09/25 02:59:55;;;;;;;2.50;0.73;;;21.20;48.90;;;;;;5047633;28;20136;-52
2022/09/25 03:02:23;;;;;;;2.50;0.52;;;21.20;48.90;;;;;;5050198;28;20055;-54
2022/09/25 03:04:51;;;;;;;2.63;0.63;;;21.20;48.90;;;;;;5045778;28;20033;-50
2022/09/25 03:07:18;;;;;;;1.63;0.60;;;21.20;48.90;;;;;;5050262;28;20441;-49
2022/09/25 03:09:46;;;;;;;1.08;0.47;;;21.20;48.90;;;;;;5040892;28;20052;-49
2022/09/25 03:12:13;;;;;;;1.45;0.50;;;21.20;48.90;;;;;;5048516;28;20322;-53
2022/09/25 03:14:39;;;;;;;1.33;0.38;;;21.20;48.90;;;;;;5048271;28;20094;-53
2022/09/25 03:17:08;;;;;;;2.85;0.60;;;21.20;48.90;;;;;;5046184;28;20026;-52
2022/09/25 03:19:34;;;;;;;1.17;0.50;;;21.20;48.90;;;;;;5048554;28;20028;-52
2022/09/25 03:22:01;;;;;;;2.38;0.70;;;21.20;48.90;;;;;;5045996;28;20340;-48
2022/09/25 03:24:27;;;;;;;1.95;0.60;;;21.20;48.90;;;;;;5047321;28;20391;-54
2022/09/25 03:26:54;;;;;;;0.75;0.40;;;21.20;48.80;;;;;;5048255;28;20033;-53
2022/09/25 03:29:20;;;;;;;1.52;0.45;;;21.10;48.80;;;;;;5050248;28;20040;-48
2022/09/25 03:31:47;;;;;;;1.75;0.43;;;21.20;48.90;;;;;;5048617;28;20413;-50
2022/09/25 03:34:18;;;;;;;0.85;0.35;;;21.20;48.80;;;;;;5047092;28;20444;-50
2022/09/25 03:36:46;;;;;;;1.10;0.43;;;21.10;48.80;;;;;;5048229;28;20052;-49
2022/09/25 03:39:14;;;;;;;0.60;0.32;;;21.10;48.80;;;;;;5047928;28;20040;-48
2022/09/25 03:41:40;;;;;;;1.38;0.47;;;21.10;48.80;;;;;;5048074;28;20037;-54
2022/09/25 03:44:06;;;;;;;1.65;0.52;;;21.10;48.80;;;;;;5049388;28;20494;-50
2022/09/25 03:46:34;;;;;;;2.65;0.50;;;21.10;48.80;;;;;;5046704;28;21737;-51
2022/09/25 03:49:01;;;;;;;2.38;0.50;;;21.10;48.80;;;;;;5045054;28;20429;-48
2022/09/25 03:51:29;;;;;;;1.48;0.40;;;21.10;48.90;;;;;;5049889;28;20491;-50
2022/09/25 03:53:55;;;;;;;2.85;0.63;;;21.10;48.80;;;;;;5041020;28;20049;-48
2022/09/25 03:56:24;;;;;;;1.65;0.40;;;21.10;48.80;;;;;;5044192;28;20028;-54
2022/09/25 03:58:53;;;;;;;1.15;0.47;;;21.10;48.80;;;;;;5041618;28;20051;-55
2022/09/25 04:01:19;;;;;;;0.82;0.40;;;21.10;48.80;;;;;;5045029;28;20434;-51
2022/09/25 04:03:46;;;;;;;1.30;0.60;;;21.10;48.80;;;;;;5047804;28;21093;-52
2022/09/25 04:06:17;;;;;;;1.15;0.52;;;21.10;48.80;;;;;;5043598;28;20029;-54
2022/09/25 04:08:43;;;;;;;1.73;0.50;;;21.10;48.80;;;;;;5045082;28;20500;-51
2022/09/25 04:11:10;;;;;;;1.85;0.40;;;21.10;48.80;;;;;;5047522;28;21156;-52
2022/09/25 04:13:36;;;;;;;3.65;0.80;;;21.10;48.80;;;;;;5050214;28;20036;-50
2022/09/25 04:16:03;;;;;;;1.58;0.28;;;21.10;48.70;;;;;;5045240;28;20025;-53
2022/09/25 04:18:30;;;;;;;1.92;0.55;;;21.10;48.80;;;;;;5045525;28;20040;-49
2022/09/25 04:21:05;;;;;;;1.50;0.50;;;21.10;48.80;;;;;;5044792;28;20045;-54
2022/09/25 04:23:31;;;;;;;0.85;0.40;;;21.10;48.70;;;;;;5045505;28;20028;-52
2022/09/25 04:25:57;;;;;;;1.33;0.40;;;21.00;48.70;;;;;;5047222;28;20071;-47
2022/09/25 04:28:24;;;;;;;1.88;0.50;;;21.00;48.70;;;;;;5046495;28;20053;-50
2022/09/25 04:30:50;;;;;;;1.48;0.68;;;21.00;48.70;;;;;;5044013;28;20028;-49
2022/09/25 04:36:01;;;;;;;0.82;0.30;;;21.00;48.70;;;;;;5048057;28;20033;-53
2022/09/25 04:38:30;;;;;;;1.48;0.43;;;21.00;48.70;;;;;;5049796;28;20029;-47
2022/09/25 04:40:56;;;;;;;1.67;0.50;;;21.00;48.70;;;;;;5042231;28;20045;-51
2022/09/25 04:43:22;;;;;;;0.95;0.40;;;21.00;48.70;;;;;;5045260;28;20033;-50
2022/09/25 04:45:50;;;;;;;0.77;0.40;;;21.00;48.70;;;;;;5049159;28;20025;-52
2022/09/25 04:48:16;;;;;;;1.20;0.45;;;21.00;48.70;;;;;;5046358;28;20119;-53
2022/09/25 04:50:47;;;;;;;0.90;0.40;;;21.00;48.70;;;;;;5047956;28;20136;-52
2022/09/25 04:53:13;;;;;;;0.90;0.32;;;21.00;48.70;;;;;;5047510;28;20036;-51
2022/09/25 04:55:39;;;;;;;0.82;0.30;;;21.00;48.70;;;;;;5046956;28;20082;-52
2022/09/25 04:58:05;;;;;;;0.82;0.40;;;21.00;48.70;;;;;;5045438;28;20429;-54
2022/09/25 05:00:31;;;;;;;0.70;0.30;;;21.00;48.70;;;;;;5046267;28;20037;-54
2022/09/25 05:02:57;;;;;;;2.53;0.38;;;21.00;48.80;;;;;;5048483;28;20033;-50
2022/09/25 05:05:27;;;;;;;2.30;0.30;;;21.00;48.70;;;;;;5044380;28;20032;-50
2022/09/25 05:07:58;;;;;;;1.25;0.55;;;20.90;48.70;;;;;;5045955;28;20029;-52
2022/09/25 05:10:29;;;;;;;1.23;0.50;;;21.00;48.70;;;;;;5042134;28;20063;-51
2022/09/25 05:12:57;;;;;;;1.58;0.40;;;20.90;48.70;;;;;;5046151;28;20017;-52
2022/09/25 05:15:24;;;;;;;1.17;0.35;;;20.90;48.70;;;;;;5043814;28;20033;-49
2022/09/25 05:17:57;;;;;;;0.70;0.30;;;20.90;48.70;;;;;;5045182;28;20414;-51
2022/09/25 05:20:23;;;;;;;1.65;0.55;;;20.90;48.70;;;;;;5038252;28;20194;-53
2022/09/25 05:22:53;;;;;;;1.50;1.10;;;20.90;48.70;;;;;;5044504;28;20112;-51
2022/09/25 05:25:22;;;;;;;1.20;0.45;;;20.90;48.80;;;;;;5043239;28;20025;-50
2022/09/25 05:27:49;;;;;;;0.88;0.30;;;20.90;48.80;;;;;;5046203;28;20028;-49
2022/09/25 05:30:16;;;;;;;1.38;0.40;;;20.90;48.70;;;;;;5046210;28;20090;-50
2022/09/25 05:32:52;;;;;;;1.25;0.50;;;20.90;48.80;;;;;;5044008;28;20036;-53
2022/09/25 05:35:20;;;;;;;1.25;0.40;;;20.90;48.80;;;;;;5043375;28;20041;-51
2022/09/25 05:37:46;;;;;;;0.88;0.30;;;20.90;48.80;;;;;;5040760;28;20097;-51
2022/09/25 05:40:16;;;;;;;1.48;0.57;;;20.90;48.80;;;;;;5045273;28;20041;-52
2022/09/25 05:42:45;;;;;;;1.33;0.40;;;20.90;48.80;;;;;;5042778;28;20060;-49
2022/09/25 05:45:12;;;;;;;1.38;0.40;;;20.90;48.80;;;;;;5042467;28;20028;-48
2022/09/25 05:47:38;;;;;;;1.20;0.32;;;20.90;48.80;;;;;;5045221;28;20499;-50
2022/09/25 05:50:05;;;;;;;0.70;0.30;;;20.90;48.80;;;;;;5035202;28;20032;-51
2022/09/25 05:52:31;;;;;;;0.88;0.50;;;20.90;48.80;;;;;;5043432;28;20044;-53
2022/09/25 05:54:57;;;;;;;1.02;0.32;;;20.90;48.80;;;;;;5047750;28;20025;-51
2022/09/25 05:57:23;;;;;;;1.05;0.40;;;20.90;48.80;;;;;;5045327;28;20107;-51
2022/09/25 05:59:49;;;;;;;1.67;0.40;;;20.90;48.80;;;;;;5043807;28;20071;-55
2022/09/25 06:02:15;;;;;;;0.65;0.30;;;20.90;48.80;;;;;;5039531;28;20364;-54
2022/09/25 06:04:41;;;;;;;0.45;0.20;;;20.90;48.80;;;;;;5047433;28;20082;-55
2022/09/25 06:07:10;;;;;;;1.88;0.40;;;20.90;48.80;;;;;;5052130;28;20376;-55
2022/09/25 06:09:36;;;;;;;1.15;0.32;;;20.90;48.80;;;;;;5043923;28;20048;-53
2022/09/25 06:12:02;;;;;;;1.40;0.40;;;20.90;48.80;;;;;;5047806;28;20082;-54
2022/09/25 06:14:29;;;;;;;0.95;0.30;;;20.90;48.70;;;;;;5050449;28;20037;-54
2022/09/25 06:16:57;;;;;;;1.23;0.50;;;20.90;48.70;;;;;;5049591;28;20029;-49
2022/09/25 06:19:23;;;;;;;0.50;0.30;;;20.90;48.70;;;;;;5044548;28;20026;-48
2022/09/25 06:21:49;;;;;;;3.92;0.40;;;20.90;48.70;;;;;;5049586;28;20359;-53
2022/09/25 06:24:15;;;;;;;1.30;0.40;;;20.90;48.70;;;;;;5051457;28;20420;-49
2022/09/25 06:26:41;;;;;;;0.75;0.30;;;20.90;48.80;;;;;;5048106;28;20040;-51
2022/09/25 06:29:06;;;;;;;1.13;0.40;;;20.90;48.70;;;;;;5048677;28;20117;-55
2022/09/25 06:31:33;;;;;;;1.38;0.40;;;20.90;48.70;;;;;;5045869;28;20329;-53
2022/09/25 06:34:00;;;;;;;1.42;0.30;;;20.90;48.80;;;;;;5044021;28;20040;-46
2022/09/25 06:36:26;;;;;;;1.23;0.45;;;20.90;48.80;;;;;;5035137;28;20056;-55
2022/09/25 06:38:55;;;;;;;0.82;0.35;;;20.90;48.80;;;;;;5051763;28;20420;-49
2022/09/25 06:41:21;;;;;;;2.22;0.20;;;20.90;48.80;;;;;;5048211;28;20040;-52
2022/09/25 06:43:51;;;;;;;0.80;0.35;;;20.90;48.80;;;;;;5044996;28;20033;-51
2022/09/25 06:46:19;;;;;;;0.45;0.20;;;20.90;48.80;;;;;;5045976;28;20033;-50
2022/09/25 06:48:58;;;;;;;2.15;0.30;;;20.90;48.80;;;;;;5045521;28;20032;-49
2022/09/25 06:51:31;;;;;;;1.27;0.35;;;20.90;48.80;;;;;;5045461;28;20040;-52
2022/09/25 06:53:57;;;;;;;1.10;0.30;;;20.90;48.80;;;;;;5049049;28;20043;-49
2022/09/25 06:56:23;;;;;;;0.73;0.30;;;20.90;48.80;;;;;;5049177;28;20352;-54
2022/09/25 06:58:49;;;;;;;1.02;0.40;;;20.90;48.80;;;;;;5047417;28;20029;-55
2022/09/25 07:01:15;;;;;;;0.98;0.55;;;20.90;48.70;;;;;;5041655;28;20437;-48
2022/09/25 07:03:44;;;;;;;0.55;0.32;;;20.90;48.70;;;;;;5037245;28;20558;-52
2022/09/25 07:06:17;;;;;;;0.45;0.20;;;20.90;48.70;;;;;;5053037;28;20029;-52
2022/09/25 07:08:44;;;;;;;0.85;0.22;;;20.90;48.70;;;;;;5043592;28;20056;-53
2022/09/25 07:11:21;;;;;;;0.57;0.28;;;20.90;48.80;;;;;;5044386;28;20021;-55
2022/09/25 07:13:51;;;;;;;0.38;0.20;;;20.90;48.90;;;;;;5047142;28;20041;-52
2022/09/25 07:16:19;;;;;;;0.90;0.30;;;20.90;48.90;;;;;;5037188;28;20033;-51
2022/09/25 07:18:45;;;;;;;0.77;0.40;;;20.90;49.00;;;;;;5039809;28;20314;-52
2022/09/25 07:21:14;;;;;;;1.35;0.45;;;20.90;49.00;;;;;;5040798;28;20045;-54
2022/09/25 07:23:43;;;;;;;2.42;0.20;;;20.90;49.00;;;;;;5040139;28;20053;-48
2022/09/25 07:26:11;;;;;;;0.68;0.40;;;20.90;49.10;;;;;;5036700;28;20025;-52
2022/09/25 07:28:39;;;;;;;0.55;0.22;;;20.90;49.10;;;;;;5037095;28;20033;-51
2022/09/25 07:31:29;;;;;;;2.03;0.30;;;20.90;49.20;;;;;;5040684;28;20471;-50
2022/09/25 07:33:57;;;;;;;1.20;0.40;;;20.90;49.20;;;;;;5037282;28;20460;-50
2022/09/25 07:36:23;;;;;;;2.95;0.50;;;20.90;49.20;;;;;;5041016;28;20171;-52
2022/09/25 07:38:50;;;;;;;1.08;0.30;;;20.90;49.30;;;;;;5051804;28;20065;-52
2022/09/25 07:41:18;;;;;;;3.72;0.50;;;20.90;49.50;;;;;;5046035;28;20073;-52
2022/09/25 07:43:44;;;;;;;1.65;0.30;;;20.90;49.60;;;;;;5051206;28;20031;-52
2022/09/25 07:46:11;;;;;;;0.68;0.32;;;20.90;49.60;;;;;;5052111;28;20028;-51
2022/09/25 07:48:37;;;;;;;2.00;0.47;;;20.90;49.60;;;;;;5057055;28;20429;-55
2022/09/25 07:51:06;;;;;;;1.42;0.40;;;20.90;49.60;;;;;;5043678;28;20120;-53
2022/09/25 07:53:32;;;;;;;1.48;0.50;;;20.90;49.60;;;;;;5051404;28;20029;-55
2022/09/25 07:55:58;;;;;;;1.02;0.43;;;20.90;49.60;;;;;;5046822;28;20452;-55
2022/09/25 07:58:25;;;;;;;1.15;0.70;;;20.90;49.60;;;;;;5040655;28;20025;-51
2022/09/25 08:00:53;;;;;;;1.52;0.30;;;20.90;50.30;;;;;;5036870;28;20121;-51
2022/09/25 08:03:19;;;;;;;0.95;0.30;;;20.90;49.60;;;;;;5036398;28;20435;-53
2022/09/25 08:05:46;;;;;;;1.70;0.50;;;20.90;49.60;;;;;;5038308;28;20027;-56
2022/09/25 08:08:11;;;;;;;2.97;0.57;;;20.90;49.70;;;;;;5042795;28;20029;-57
2022/09/25 08:10:37;;;;;;;0.63;0.30;;;20.90;49.70;;;;;;5056398;28;20037;-55
2022/09/25 08:13:03;;;;;;;1.75;0.70;;;21.00;49.80;;;;;;5055814;28;20449;-53
2022/09/25 08:15:29;;;;;;;1.23;0.52;;;20.90;49.80;;;;;;5044043;28;20124;-53
2022/09/25 08:17:55;;;;;;;0.82;0.40;;;20.90;49.80;;;;;;5042457;28;20017;-57
2022/09/25 08:20:21;;;;;;;1.65;0.40;;;21.00;49.90;;;;;;5051639;28;20479;-57
2022/09/25 08:22:46;;;;;;;1.33;0.45;;;21.00;49.90;;;;;;5032493;28;20030;-54
2022/09/25 08:25:12;;;;;;;0.77;0.30;;;20.90;49.70;;;;;;5035628;28;20040;-54
2022/09/25 08:27:39;;;;;;;0.38;0.30;;;21.00;49.70;;;;;;5034148;28;20363;-56
2022/09/25 08:30:12;;;;;;;4.40;0.60;;;21.00;49.70;;;;;;5030562;28;20068;-58
2022/09/25 08:32:43;;;;;;;1.52;0.47;;;21.00;49.70;;;;;;5022541;28;20025;-59
2022/09/25 08:35:10;;;;;;;2.85;0.60;;;21.00;49.70;;;;;;5035454;28;20041;-57
2022/09/25 08:37:40;;;;;;;6.55;0.50;;;21.00;49.70;;;;;;5042000;28;20025;-62
2022/09/25 08:40:17;;;;;;;0.50;0.30;;;21.00;49.50;;;;;;5048798;28;20032;-60
2022/09/25 08:42:46;;;;;;;1.50;0.60;;;21.00;48.80;;;;;;5021270;28;20095;-64
2022/09/25 08:51:05;;;;;;;1.00;0.40;;;20.80;48.10;;;;;;5044035;28;20103;-53
2022/09/25 08:53:33;;;;;;;1.25;0.40;;;20.80;48.70;;;;;;5042241;28;20188;-55
2022/09/25 08:56:16;;;;;;;2.47;0.50;;;20.90;49.20;;;;;;5038663;28;20360;-54
2022/09/25 08:59:03;;;;;;;1.63;0.50;;;20.90;49.50;;;;;;5036857;28;20029;-56
2022/09/25 09:01:43;;;;;;;1.40;0.43;;;20.90;49.70;;;;;;5046295;28;20045;-56
2022/09/25 09:04:18;;;;;;;1.25;0.40;;;20.90;49.70;;;;;;5050853;28;20036;-55
2022/09/25 09:06:46;;;;;;;2.65;0.47;;;20.90;49.90;;;;;;5039581;28;20033;-53
2022/09/25 09:09:36;;;;;;;1.05;0.50;;;21.00;49.90;;;;;;5040857;28;20132;-52
2022/09/25 09:12:18;;;;;;;3.13;0.73;;;21.00;49.90;;;;;;5034709;28;20052;-48
2022/09/25 09:14:50;;;;;;;6.95;2.20;;;21.10;50.00;;;;;;5043794;28;20036;-54
2022/09/25 09:17:25;;;;;;;100.70;37.80;;;21.10;50.00;;;;;;5046573;28;20150;-53
2022/09/25 09:20:01;;;;;;;99.85;38.08;;;21.10;51.20;;;;;;5032733;28;20025;-56
2022/09/25 09:22:36;;;;;;;82.82;31.85;;;21.10;53.10;;;;;;5037075;28;20033;-53
2022/09/25 09:25:51;;;;;;;72.03;27.30;;;21.20;55.20;;;;;;5055267;28;20036;-58
2022/09/25 09:28:38;;;;;;;61.05;24.33;;;21.20;56.40;;;;;;5025234;28;20465;-58
2022/09/25 09:31:15;;;;;;;52.72;21.65;;;21.20;57.70;;;;;;5034841;28;20104;-53
2022/09/25 09:34:23;;;;;;;59.08;24.42;;;21.30;58.80;;;;;;5041167;28;20067;-53
2022/09/25 09:37:14;;;;;;;55.15;23.38;;;21.30;60.20;;;;;;5015487;28;20056;-52
2022/09/25 09:40:00;;;;;;;52.42;22.17;;;21.40;61.10;;;;;;5034121;28;20025;-52
2022/09/25 09:43:07;;;;;;;61.40;21.58;;;21.40;62.10;;;;;;5035161;28;20048;-50
2022/09/25 09:45:53;;;;;;;44.08;20.48;;;21.50;63.00;;;;;;5013848;28;20045;-52
2022/09/25 09:48:28;;;;;;;42.65;19.13;;;21.50;63.40;;;;;;5033119;28;20088;-49
2022/09/25 09:51:03;;;;;;;31.67;13.77;;;21.50;63.70;;;;;;5034704;28;20075;-61
2022/09/25 09:53:35;;;;;;;23.77;10.23;;;21.60;62.60;;;;;;5034292;28;20040;-60
2022/09/25 09:56:11;;;;;;;16.52;6.13;;;21.50;60.70;;;;;;5033772;28;20029;-61
2022/09/25 09:58:51;;;;;;;9.43;4.90;;;21.50;58.40;;;;;;5048233;28;20025;-60
2022/09/25 10:01:21;;;;;;;8.27;4.15;;;21.50;57.10;;;;;;5033843;28;20496;-61
2022/09/25 10:04:03;;;;;;;7.22;3.40;;;21.40;56.20;;;;;;5033087;28;20065;-57
2022/09/25 10:06:32;;;;;;;8.10;3.47;;;21.40;55.30;;;;;;5033367;28;20044;-56
2022/09/25 10:08:58;;;;;;;13.65;5.85;;;21.40;54.30;;;;;;5034054;28;20084;-53
2022/09/25 10:11:25;;;;;;;19.13;9.48;;;21.40;54.40;;;;;;5034136;28;20068;-54
2022/09/25 10:13:52;;;;;;;29.73;14.25;;;21.50;55.40;;;;;;5034082;28;20479;-51
2022/09/25 10:16:23;;;;;;;26.48;13.45;;;21.50;56.70;;;;;;5033081;28;20443;-50
2022/09/25 10:18:59;;;;;;;26.38;12.27;;;21.60;57.20;;;;;;5034327;28;20468;-49
2022/09/25 10:21:37;;;;;;;18.63;9.43;;;21.60;56.60;;;;;;5033248;28;20505;-51
2022/09/25 10:24:03;;;;;;;16.30;7.55;;;21.70;56.70;;;;;;5041655;28;20033;-52
2022/09/25 10:26:35;;;;;;;12.48;6.60;;;21.70;56.20;;;;;;5038817;28;20352;-59
2022/09/25 10:29:22;;;;;;;11.15;4.95;;;21.70;55.50;;;;;;5035715;28;20909;-57
2022/09/25 10:31:57;;;;;;;9.55;4.00;;;21.80;54.80;;;;;;5032342;28;20029;-54
2022/09/25 10:34:27;;;;;;;10.23;4.18;;;21.80;54.20;;;;;;5037471;28;20043;-53
2022/09/25 10:36:53;;;;;;;10.50;3.90;;;21.80;53.70;;;;;;5044976;28;20039;-48
2022/09/25 10:39:38;;;;;;;11.25;4.22;;;21.90;53.30;;;;;;5045655;28;20025;-56
2022/09/25 10:42:25;;;;;;;10.18;3.15;;;21.90;52.90;;;;;;5042456;28;20041;-57
2022/09/25 10:44:55;;;;;;;6.28;2.75;;;21.90;52.50;;;;;;5031984;28;20391;-60
2022/09/25 10:50:12;;;;;;;7.80;2.22;;;22.00;52.10;;;;;;5031774;28;20057;-55
2022/09/25 10:52:51;;;;;;;6.45;2.50;;;22.00;51.80;;;;;;5036370;28;20075;-59
2022/09/25 10:55:29;;;;;;;6.50;2.30;;;22.00;51.70;;;;;;5032253;28;20120;-59
2022/09/25 10:58:15;;;;;;;3.83;2.40;;;22.10;51.40;;;;;;5035896;28;20452;-60
2022/09/25 11:01:02;;;;;;;5.60;2.25;;;22.10;51.10;;;;;;5036653;28;20140;-58
2022/09/25 11:03:38;;;;;;;5.63;2.15;;;22.10;50.80;;;;;;5033736;28;20067;-63
2022/09/25 11:06:19;;;;;;;5.45;2.15;;;22.20;50.60;;;;;;5039688;28;20437;-59
2022/09/25 11:08:45;;;;;;;4.47;1.70;;;22.30;50.20;;;;;;5042417;28;20119;-55
2022/09/25 11:11:13;;;;;;;5.28;1.58;;;22.40;49.80;;;;;;5040814;28;21859;-61
2022/09/25 11:13:51;;;;;;;3.08;1.70;;;22.50;49.30;;;;;;5037874;28;20017;-60
2022/09/25 11:16:19;;;;;;;3.35;1.67;;;22.60;48.80;;;;;;5041721;28;20350;-58
2022/09/25 11:19:04;;;;;;;3.30;1.25;;;22.70;48.50;;;;;;5035841;28;20031;-59
2022/09/25 11:21:37;;;;;;;4.45;1.40;;;22.90;48.30;;;;;;5033704;28;20409;-58
2022/09/25 11:24:15;;;;;;;4.80;1.50;;;22.90;47.80;;;;;;5036591;28;20028;-61
2022/09/25 11:26:57;;;;;;;3.00;1.02;;;23.10;47.40;;;;;;5042640;28;20029;-60
2022/09/25 11:29:49;;;;;;;3.00;1.17;;;23.20;47.00;;;;;;5040501;28;20483;-62
2022/09/25 11:32:25;;;;;;;2.92;1.00;;;23.30;46.50;;;;;;5034849;28;20087;-59
2022/09/25 11:35:10;;;;;;;1.70;0.70;;;23.40;46.20;;;;;;5032515;28;20031;-57
2022/09/25 11:37:44;;;;;;;2.00;0.75;;;23.40;45.90;;;;;;5038180;28;20051;-57
2022/09/25 11:43:38;;;;;;;3.42;0.80;;;23.60;45.10;;;;;;5035633;28;20441;-55
2022/09/25 11:46:17;;;;;;;1.58;0.68;;;23.70;44.70;;;;;;5033725;28;20060;-57
2022/09/25 11:49:18;;;;;;;0.75;0.40;;;23.80;44.40;;;;;;5029687;28;20029;-55
2022/09/25 11:51:55;;;;;;;1.13;0.52;;;23.90;44.10;;;;;;5035123;28;20025;-53
2022/09/25 11:54:40;;;;;;;1.40;0.60;;;24.00;43.70;;;;;;5036422;28;20037;-63
2022/09/25 11:57:30;;;;;;;1.38;0.50;;;24.00;43.40;;;;;;5040568;28;20053;-57
2022/09/25 12:00:08;;;;;;;0.93;0.40;;;24.10;43.20;;;;;;5041681;28;20458;-59
2022/09/25 12:03:05;;;;;;;2.35;0.60;;;24.10;42.90;;;;;;5033908;28;20030;-54
2022/09/25 12:06:05;;;;;;;0.80;0.38;;;24.20;42.70;;;;;;5034096;28;21591;-54
2022/09/25 12:09:01;;;;;;;1.67;0.40;;;24.20;42.40;;;;;;5032723;28;20500;-51
2022/09/25 12:11:52;;;;;;;1.88;0.63;;;24.20;42.10;;;;;;5021868;28;20138;-50
2022/09/25 12:14:30;;;;;;;1.35;0.57;;;24.20;41.90;;;;;;5032069;28;20021;-50
2022/09/25 12:17:21;;;;;;;1.50;0.63;;;24.20;41.70;;;;;;5037519;28;20076;-50
2022/09/25 12:20:10;;;;;;;2.90;0.52;;;24.20;41.60;;;;;;5031582;28;20479;-56
2022/09/25 12:23:05;;;;;;;3.10;0.77;;;24.10;41.40;;;;;;5039039;28;20094;-56
2022/09/25 12:25:49;;;;;;;1.50;0.60;;;24.00;41.30;;;;;;5040138;28;20462;-56
2022/09/25 12:28:43;;;;;;;1.10;0.50;;;24.00;41.20;;;;;;5037230;28;20033;-55
2022/09/25 12:31:30;;;;;;;1.17;0.50;;;23.90;41.00;;;;;;5039249;28;20105;-56
2022/09/25 12:34:29;;;;;;;2.08;0.60;;;23.90;41.00;;;;;;5034488;28;20051;-56
2022/09/25 12:37:21;;;;;;;3.05;0.70;;;23.80;41.00;;;;;;5018915;28;20171;-56
2022/09/25 12:40:01;;;;;;;1.50;0.50;;;23.70;40.90;;;;;;5043569;28;20029;-55
2022/09/25 12:42:55;;;;;;;3.08;0.52;;;23.70;41.00;;;;;;5035669;28;20120;-54
2022/09/25 12:45:33;;;;;;;1.63;0.50;;;23.70;41.10;;;;;;5032540;28;20025;-57
2022/09/25 12:48:23;;;;;;;1.90;0.70;;;23.60;41.10;;;;;;5037239;28;20123;-56
2022/09/25 12:50:58;;;;;;;2.92;0.50;;;23.60;41.20;;;;;;5031033;28;20045;-56
2022/09/25 12:53:38;;;;;;;1.95;0.57;;;23.60;41.30;;;;;;5044962;28;20448;-55
2022/09/25 12:56:16;;;;;;;1.77;0.30;;;23.50;41.20;;;;;;5033686;28;20043;-54
2022/09/25 12:59:09;;;;;;;1.08;0.50;;;23.50;41.30;;;;;;5035448;28;20034;-54
2022/09/25 13:02:16;;;;;;;1.83;0.40;;;23.50;41.30;;;;;;5035244;28;20461;-54
2022/09/25 13:04:48;;;;;;;2.05;0.30;;;23.40;41.30;;;;;;5032543;28;20490;-56
2022/09/25 13:08:09;;;;;;;0.75;0.40;;;23.40;41.30;;;;;;5033959;28;20022;-52
2022/09/25 13:10:45;;;;;;;1.02;0.40;;;23.30;41.30;;;;;;4999885;28;20493;-53
2022/09/25 13:13:44;;;;;;;1.30;0.47;;;23.30;41.30;;;;;;4994809;28;20050;-53
2022/09/25 13:16:14;;;;;;;1.30;0.30;;;23.30;41.30;;;;;;4998493;28;20034;-54
2022/09/25 13:19:08;;;;;;;2.38;0.38;;;23.30;41.30;;;;;;4995275;28;20026;-56
2022/09/25 13:21:37;;;;;;;0.73;0.28;;;23.30;41.30;;;;;;4995334;28;20057;-55
2022/09/25 13:24:07;;;;;;;1.08;0.30;;;23.30;41.40;;;;;;4996515;28;20339;-55
2022/09/25 13:26:53;;;;;;;1.63;0.30;;;23.30;41.60;;;;;;4992094;28;20426;-54
2022/09/25 13:29:37;;;;;;;1.17;0.35;;;23.30;41.70;;;;;;4987888;28;20029;-52
2022/09/25 13:32:14;;;;;;;1.05;0.25;;;23.20;41.80;;;;;;4987367;28;20057;-57
2022/09/25 13:34:42;;;;;;;0.38;0.30;;;23.20;41.80;;;;;;4996527;28;20442;-54
2022/09/25 13:37:12;;;;;;;2.22;0.60;;;23.20;41.80;;;;;;4990303;28;20026;-54
2022/09/25 13:42:42;;;;;;;0.68;0.30;;;23.20;41.80;;;;;;4992513;28;20078;-57